Terminal Aerodrome Forecast
Issued by NWS El Paso, TX

Home | Current Version | Previous Version | Text Only | Print | Product List | Glossary On
Versions: 1 2 3 4 5 6 7 8 9 10 11 12 13 14
000
FTUS44 KEPZ 072253 AAA
TAFELP
TAF AMD
KELP 072253Z 0723/0818 30013G23KT P6SM VCTS SCT050CB BKN090 BKN200
      TEMPO 0723/0803 VRB35G45KT 4SM TSRA BKN040CB OVC080
     FM080400 13008KT P6SM VCTS BKN050CB BKN200
     FM081500 22008KT P6SM VCTS BKN050CB BKN200=

USA.gov is the U.S. government's official web portal to all federal, state and local government web resources and services.